createdAt,value
2023-01-12T00:02:11.167Z,3.30
2023-01-12T00:04:38.248Z,1.60
2023-01-12T00:07:12.362Z,2.90
2023-01-12T00:09:39.268Z,2.20
2023-01-12T00:15:09.954Z,4.00
2023-01-12T00:17:36.997Z,2.90
2023-01-12T00:20:05.480Z,4.60
2023-01-12T00:22:32.431Z,3.10
2023-01-12T00:24:59.323Z,2.80
2023-01-12T00:27:26.231Z,2.30
2023-01-12T00:29:53.131Z,2.70
2023-01-12T00:32:20.385Z,3.60
2023-01-12T00:34:47.307Z,4.10
2023-01-12T00:37:14.319Z,3.10
2023-01-12T00:39:45.913Z,1.90
2023-01-12T00:42:42.483Z,3.00
2023-01-12T00:45:22.108Z,2.30
2023-01-12T00:47:49.143Z,7.30
2023-01-12T00:50:18.536Z,4.10
2023-01-12T00:52:46.225Z,2.50
2023-01-12T00:55:13.144Z,1.70
2023-01-12T00:57:40.205Z,4.40
2023-01-12T01:00:07.303Z,2.90
2023-01-12T01:02:34.296Z,2.40
2023-01-12T01:05:01.368Z,3.10
2023-01-12T01:07:28.233Z,2.30
2023-01-12T01:09:55.185Z,2.30
2023-01-12T01:12:22.039Z,2.60
2023-01-12T01:14:48.858Z,3.30
2023-01-12T01:17:17.033Z,2.30
2023-01-12T01:19:44.209Z,2.70
2023-01-12T01:22:12.598Z,2.40
2023-01-12T01:24:39.586Z,3.20
2023-01-12T01:27:06.459Z,3.80
2023-01-12T01:29:33.271Z,3.00
2023-01-12T01:32:00.184Z,3.10
2023-01-12T01:34:27.130Z,2.80
2023-01-12T01:36:53.983Z,2.40
2023-01-12T01:39:21.410Z,2.50
2023-01-12T01:41:48.406Z,3.00
2023-01-12T01:44:30.780Z,3.40
2023-01-12T01:47:00.685Z,2.00
2023-01-12T01:49:30.726Z,3.10
2023-01-12T01:51:59.849Z,4.00
2023-01-12T01:54:27.118Z,4.50
2023-01-12T01:56:54.792Z,4.70
2023-01-12T01:59:23.166Z,2.70
2023-01-12T02:01:50.021Z,2.40
2023-01-12T02:04:16.970Z,3.90
2023-01-12T02:06:43.889Z,3.30
2023-01-12T02:09:15.159Z,1.80
2023-01-12T02:12:01.033Z,3.30
2023-01-12T02:14:46.739Z,3.10
2023-01-12T02:17:19.807Z,2.10
2023-01-12T02:20:03.378Z,2.40
2023-01-12T02:22:49.366Z,3.60
2023-01-12T02:25:16.403Z,2.50
2023-01-12T02:27:47.753Z,1.70
2023-01-12T02:30:17.807Z,2.40
2023-01-12T02:32:48.686Z,3.40
2023-01-12T02:35:24.933Z,2.80
2023-01-12T02:37:51.846Z,2.40
2023-01-12T02:40:21.682Z,2.80
2023-01-12T02:42:55.131Z,2.20
2023-01-12T02:45:22.007Z,2.60
2023-01-12T02:47:55.982Z,2.10
2023-01-12T02:50:41.914Z,3.40
2023-01-12T02:53:24.513Z,2.00
2023-01-12T02:55:51.537Z,3.40
2023-01-12T02:58:19.002Z,3.40
2023-01-12T03:00:46.021Z,1.80
2023-01-12T03:03:13.225Z,2.30
2023-01-12T03:05:40.746Z,2.30
2023-01-12T03:08:07.678Z,3.10
2023-01-12T03:10:37.647Z,3.40
2023-01-12T03:13:06.529Z,3.00
2023-01-12T03:15:34.490Z,2.70
2023-01-12T03:18:06.867Z,3.00
2023-01-12T03:20:34.608Z,2.10
2023-01-12T03:23:02.846Z,2.80
2023-01-12T03:25:29.778Z,2.80
2023-01-12T03:27:56.842Z,2.00
2023-01-12T03:30:25.318Z,1.90
2023-01-12T03:32:52.195Z,1.70
2023-01-12T03:35:19.360Z,2.10
2023-01-12T03:38:08.003Z,1.90
2023-01-12T03:40:39.444Z,2.50
2023-01-12T03:43:06.404Z,2.70
2023-01-12T03:45:48.222Z,2.50
2023-01-12T03:48:24.727Z,3.00
2023-01-12T03:50:58.885Z,1.90
2023-01-12T03:53:26.333Z,1.20
2023-01-12T03:55:54.799Z,2.50
2023-01-12T03:58:21.965Z,2.60
2023-01-12T04:00:48.888Z,3.10
2023-01-12T04:03:15.939Z,3.70
2023-01-12T04:05:43.513Z,3.20
2023-01-12T04:08:10.885Z,2.40
2023-01-12T04:10:37.769Z,2.40
2023-01-12T04:13:04.699Z,3.00
2023-01-12T04:15:31.601Z,3.60
2023-01-12T04:17:58.518Z,2.30
2023-01-12T04:20:25.615Z,1.90
2023-01-12T04:22:52.522Z,2.60
2023-01-12T04:25:20.978Z,3.00
2023-01-12T04:27:48.529Z,2.50
2023-01-12T04:30:16.021Z,2.20
2023-01-12T04:32:43.436Z,2.70
2023-01-12T04:35:12.179Z,2.80
2023-01-12T04:37:39.549Z,2.40
2023-01-12T04:40:07.194Z,2.30
2023-01-12T04:42:52.917Z,2.30
2023-01-12T04:45:19.912Z,3.10
2023-01-12T04:47:46.863Z,2.60
2023-01-12T04:50:14.196Z,2.90
2023-01-12T04:52:41.263Z,1.80
2023-01-12T04:55:08.286Z,3.50
2023-01-12T04:57:35.239Z,3.00
2023-01-12T05:00:02.143Z,3.70
2023-01-12T05:02:29.041Z,2.90
2023-01-12T05:04:56.008Z,2.80
2023-01-12T05:07:22.958Z,3.30
2023-01-12T05:10:08.657Z,2.90
2023-01-12T05:12:35.605Z,3.00
2023-01-12T05:15:03.803Z,2.20
2023-01-12T05:17:31.787Z,4.70
2023-01-12T05:20:00.805Z,2.20
2023-01-12T05:22:28.043Z,2.00
2023-01-12T05:24:55.218Z,2.10
2023-01-12T05:27:22.261Z,2.90
2023-01-12T05:29:49.674Z,3.60
2023-01-12T05:32:16.662Z,2.80
2023-01-12T05:34:43.626Z,1.80
2023-01-12T05:37:10.493Z,2.30
2023-01-12T05:39:37.403Z,2.60
2023-01-12T05:42:23.191Z,3.00
2023-01-12T05:44:50.103Z,3.00
2023-01-12T05:47:16.988Z,2.70
2023-01-12T05:49:43.836Z,3.80
2023-01-12T05:52:10.903Z,4.00
2023-01-12T05:54:37.836Z,2.80
2023-01-12T05:57:04.713Z,3.10
2023-01-12T05:59:31.639Z,2.50
2023-01-12T06:01:58.674Z,2.40
2023-01-12T06:04:25.629Z,3.20
2023-01-12T06:06:53.413Z,3.20
2023-01-12T06:09:20.449Z,2.10
2023-01-12T06:12:06.160Z,3.40
2023-01-12T06:14:33.166Z,2.40
2023-01-12T06:17:00.003Z,3.10
2023-01-12T06:19:27.542Z,3.00
2023-01-12T06:21:55.418Z,3.00
2023-01-12T06:24:22.423Z,2.30
2023-01-12T06:26:49.327Z,4.70
2023-01-12T06:29:16.348Z,3.30
2023-01-12T06:31:44.105Z,3.50
2023-01-12T06:34:12.291Z,3.70
2023-01-12T06:36:39.412Z,3.10
2023-01-12T06:39:06.287Z,3.90
2023-01-12T06:41:52.538Z,3.50
2023-01-12T06:44:19.477Z,3.40
2023-01-12T06:46:46.406Z,3.10
2023-01-12T06:49:13.320Z,3.50
2023-01-12T06:51:40.234Z,2.10
2023-01-12T06:54:07.184Z,2.60
2023-01-12T06:56:34.192Z,2.70
2023-01-12T06:59:01.425Z,4.10
2023-01-12T07:01:28.420Z,3.30
2023-01-12T07:03:55.420Z,9.70
2023-01-12T07:06:22.344Z,6.40
2023-01-12T07:08:49.231Z,3.60
2023-01-12T07:11:17.079Z,6.70
2023-01-12T07:13:43.981Z,10.20
2023-01-12T07:16:11.083Z,7.10
2023-01-12T07:18:38.075Z,7.40
2023-01-12T07:21:08.539Z,6.80
2023-01-12T07:23:35.498Z,8.70
2023-01-12T07:26:02.490Z,8.80
2023-01-12T07:28:31.533Z,19.30
2023-01-12T07:31:02.244Z,9.00
2023-01-12T07:33:29.332Z,46.50
2023-01-12T07:35:59.910Z,18.10
2023-01-12T07:38:27.205Z,6.70
2023-01-12T07:40:54.199Z,25.70
2023-01-12T07:43:21.141Z,12.10
2023-01-12T07:45:48.023Z,5.20
2023-01-12T07:48:16.641Z,7.10
2023-01-12T07:50:43.658Z,8.60
2023-01-12T07:53:10.575Z,10.60
2023-01-12T07:55:39.804Z,12.40
2023-01-12T07:58:07.428Z,12.30
2023-01-12T08:00:34.590Z,10.90
2023-01-12T08:03:05.647Z,6.70
2023-01-12T08:05:33.180Z,8.70
2023-01-12T08:08:02.041Z,3.60
2023-01-12T08:10:30.386Z,4.00
2023-01-12T08:12:57.345Z,3.70
2023-01-12T08:15:24.606Z,5.80
2023-01-12T08:18:00.398Z,3.70
2023-01-12T08:20:28.396Z,2.90
2023-01-12T08:22:55.915Z,2.20
2023-01-12T08:25:26.952Z,2.60
2023-01-12T08:27:54.393Z,3.00
2023-01-12T08:30:21.885Z,3.50
2023-01-12T08:32:48.815Z,3.80
2023-01-12T08:35:17.385Z,2.40
2023-01-12T08:37:44.263Z,3.00
2023-01-12T08:40:11.557Z,3.00
2023-01-12T08:42:38.484Z,4.10
2023-01-12T08:45:08.056Z,3.00
2023-01-12T08:47:35.190Z,3.90
2023-01-12T08:50:03.089Z,3.00
2023-01-12T08:52:30.132Z,3.80
2023-01-12T08:54:57.100Z,6.90
2023-01-12T08:57:23.972Z,6.70
2023-01-12T08:59:50.892Z,4.40
2023-01-12T09:02:17.984Z,4.00
2023-01-12T09:04:45.703Z,3.40
2023-01-12T09:07:12.775Z,3.10
2023-01-12T09:09:39.771Z,5.00
2023-01-12T09:12:07.045Z,2.70
2023-01-12T09:14:38.476Z,6.00
2023-01-12T09:17:06.141Z,7.40
2023-01-12T09:19:33.141Z,19.00
2023-01-12T09:22:00.049Z,26.20
2023-01-12T09:24:27.365Z,25.30
2023-01-12T09:26:54.433Z,29.80
2023-01-12T09:29:21.426Z,21.90
2023-01-12T09:31:48.386Z,24.90
2023-01-12T09:34:15.393Z,11.50
2023-01-12T09:36:42.533Z,15.90
2023-01-12T09:39:15.506Z,14.50
2023-01-12T09:42:07.989Z,10.40
2023-01-12T09:44:57.216Z,5.60
2023-01-12T09:47:25.504Z,4.20
2023-01-12T09:49:55.987Z,4.50
2023-01-12T09:52:30.658Z,4.00
2023-01-12T09:54:57.561Z,4.90
2023-01-12T09:57:37.133Z,4.90
2023-01-12T10:00:06.402Z,4.00
2023-01-12T10:02:40.382Z,4.30
2023-01-12T10:05:08.236Z,3.90
2023-01-12T10:07:35.444Z,5.30
2023-01-12T10:10:02.369Z,5.00
2023-01-12T10:12:36.224Z,8.20
2023-01-12T10:17:42.042Z,4.30
2023-01-12T10:20:17.581Z,3.60
2023-01-12T10:22:46.041Z,7.10
2023-01-12T10:25:19.205Z,19.50
2023-01-12T10:27:46.821Z,16.40
2023-01-12T10:30:15.465Z,19.80
2023-01-12T10:32:42.459Z,83.50
2023-01-12T10:35:13.071Z,64.40
2023-01-12T10:37:53.428Z,100.80
2023-01-12T10:40:22.596Z,115.80
2023-01-12T10:43:19.593Z,57.50
2023-01-12T10:46:06.345Z,37.90
2023-01-12T10:48:33.375Z,24.90
2023-01-12T10:51:01.465Z,27.10
2023-01-12T10:53:34.517Z,90.60
2023-01-12T10:56:03.281Z,37.70
2023-01-12T10:58:30.735Z,54.20
2023-01-12T11:00:57.810Z,14.10
2023-01-12T11:03:29.434Z,9.80
2023-01-12T11:05:56.340Z,10.40
2023-01-12T11:08:23.692Z,14.50
2023-01-12T11:10:50.605Z,6.80
2023-01-12T11:13:24.723Z,8.30
2023-01-12T11:15:58.150Z,10.80
2023-01-12T11:18:28.229Z,6.20
2023-01-12T11:21:06.145Z,10.30
2023-01-12T11:23:48.438Z,4.60
2023-01-12T11:26:22.782Z,4.70
2023-01-12T11:28:51.094Z,6.20
2023-01-12T11:31:18.093Z,4.30
2023-01-12T11:33:53.450Z,3.60
2023-01-12T11:36:24.795Z,2.80
2023-01-12T11:38:53.186Z,3.40
2023-01-12T11:41:26.156Z,3.50
2023-01-12T11:43:59.247Z,4.20
2023-01-12T11:46:42.589Z,3.70
2023-01-12T11:49:18.801Z,3.50
2023-01-12T11:51:48.050Z,4.10
2023-01-12T11:54:18.011Z,4.50
2023-01-12T11:56:54.245Z,4.90
2023-01-12T11:59:21.185Z,4.70
2023-01-12T12:02:01.464Z,4.20
2023-01-12T12:04:28.392Z,3.80
2023-01-12T12:07:16.275Z,4.90
2023-01-12T12:09:58.694Z,3.20
2023-01-12T12:12:28.595Z,3.80
2023-01-12T12:14:58.636Z,3.40
2023-01-12T12:17:25.844Z,3.90
2023-01-12T12:19:56.253Z,4.10
2023-01-12T12:22:43.411Z,4.00
2023-01-12T12:25:10.601Z,4.00
2023-01-12T12:27:56.420Z,4.30
2023-01-12T12:30:29.239Z,3.20
2023-01-12T12:35:01.299Z,4.80
2023-01-12T12:37:37.496Z,13.20
2023-01-12T12:40:23.450Z,30.50
2023-01-12T12:43:31.473Z,10.80
2023-01-12T12:46:01.634Z,32.20
2023-01-12T12:48:38.046Z,49.70
2023-01-12T12:51:07.196Z,46.00
2023-01-12T12:53:47.672Z,39.40
2023-01-12T12:56:16.355Z,28.50
2023-01-12T12:58:52.955Z,33.90
2023-01-12T13:01:20.234Z,32.80
2023-01-12T13:04:00.815Z,8.90
2023-01-12T13:06:27.719Z,30.30
2023-01-12T13:08:55.341Z,18.00
2023-01-12T13:11:42.306Z,10.70
2023-01-12T13:14:17.151Z,39.50
2023-01-12T13:16:48.622Z,19.90
2023-01-12T13:19:15.957Z,7.20
2023-01-12T13:21:43.127Z,6.00
2023-01-12T13:24:10.126Z,5.50
2023-01-12T13:26:39.428Z,6.80
2023-01-12T13:29:24.977Z,5.20
2023-01-12T13:31:52.498Z,6.40
2023-01-12T13:34:31.783Z,4.50
2023-01-12T13:37:17.620Z,4.20
2023-01-12T13:39:48.329Z,4.70
2023-01-12T13:42:48.627Z,5.50
2023-01-12T13:45:18.993Z,5.90
2023-01-12T13:47:46.273Z,7.70
2023-01-12T13:50:20.939Z,18.80
2023-01-12T13:52:58.274Z,32.00
2023-01-12T13:55:28.091Z,31.10
2023-01-12T13:57:59.147Z,42.10
2023-01-12T14:00:26.203Z,17.50
2023-01-12T14:02:53.392Z,28.30
2023-01-12T14:05:32.365Z,23.50
2023-01-12T14:08:18.271Z,29.30
2023-01-12T14:11:00.200Z,13.20
2023-01-12T14:13:27.328Z,12.60
2023-01-12T14:16:19.565Z,14.80
2023-01-12T14:18:47.494Z,7.60
2023-01-12T14:21:28.999Z,4.10
2023-01-12T14:24:14.959Z,6.10
2023-01-12T14:26:41.811Z,6.10
2023-01-12T14:29:09.414Z,4.80
2023-01-12T14:31:40.822Z,3.70
2023-01-12T14:34:07.807Z,4.50
2023-01-12T14:36:35.591Z,3.20
2023-01-12T14:39:06.181Z,3.60
2023-01-12T14:41:51.820Z,4.30
2023-01-12T14:44:38.432Z,4.90
2023-01-12T14:47:05.410Z,3.80
2023-01-12T14:49:33.128Z,2.40
2023-01-12T14:52:20.285Z,3.40
2023-01-12T14:54:47.464Z,4.30
2023-01-12T14:57:23.568Z,4.60
2023-01-12T14:59:50.815Z,3.40
2023-01-12T15:02:31.286Z,4.00
2023-01-12T15:05:10.540Z,4.90
2023-01-12T15:07:41.475Z,5.10
2023-01-12T15:10:11.388Z,3.50
2023-01-12T15:12:48.449Z,4.00
2023-01-12T15:15:16.414Z,4.80
2023-01-12T15:18:01.955Z,4.50
2023-01-12T15:20:47.622Z,4.80
2023-01-12T15:23:33.177Z,5.20
2023-01-12T15:26:00.070Z,3.80
2023-01-12T15:28:28.333Z,2.50
2023-01-12T15:30:55.874Z,4.50
2023-01-12T15:33:22.847Z,5.10
2023-01-12T15:35:49.703Z,2.90
2023-01-12T15:38:16.925Z,3.70
2023-01-12T15:40:45.173Z,2.40
2023-01-12T15:43:15.897Z,3.20
2023-01-12T15:45:43.659Z,3.50
2023-01-12T15:48:10.720Z,4.30
2023-01-12T15:50:38.196Z,5.20
2023-01-12T15:53:12.525Z,4.40
2023-01-12T15:55:40.156Z,2.50
2023-01-12T15:58:07.272Z,3.10
2023-01-12T16:00:35.035Z,3.10
2023-01-12T16:03:02.107Z,4.60
2023-01-12T16:05:29.188Z,3.50
2023-01-12T16:09:47.911Z,4.50
2023-01-12T16:12:15.125Z,5.40
2023-01-12T16:15:40.646Z,5.10
2023-01-12T16:18:07.591Z,3.00
2023-01-12T16:20:34.463Z,4.40
2023-01-12T16:23:01.372Z,3.70
2023-01-12T16:25:28.288Z,6.00
2023-01-12T16:27:56.768Z,4.80
2023-01-12T16:30:23.688Z,4.70
2023-01-12T16:32:50.784Z,5.30
2023-01-12T16:35:17.696Z,5.00
2023-01-12T16:37:44.844Z,4.00
2023-01-12T16:40:12.159Z,4.70
2023-01-12T16:42:39.052Z,5.80
2023-01-12T16:45:06.433Z,3.60
2023-01-12T16:47:33.280Z,4.10
2023-01-12T16:50:00.338Z,3.90
2023-01-12T16:52:27.347Z,4.50
2023-01-12T16:54:54.347Z,5.40
2023-01-12T16:57:21.201Z,4.50
2023-01-12T16:59:51.581Z,2.90
2023-01-12T17:02:18.991Z,5.60
2023-01-12T17:04:48.543Z,5.50
2023-01-12T17:07:15.542Z,5.30
2023-01-12T17:09:42.476Z,4.90
2023-01-12T17:12:09.580Z,4.70
2023-01-12T17:14:36.598Z,7.40
2023-01-12T17:17:04.732Z,9.20
2023-01-12T17:19:32.832Z,4.10
2023-01-12T17:22:01.626Z,8.40
2023-01-12T17:24:29.350Z,5.90
2023-01-12T17:26:56.904Z,8.90
2023-01-12T17:29:25.504Z,9.20
2023-01-12T17:31:53.727Z,8.40
2023-01-12T17:34:21.442Z,6.50
2023-01-12T17:36:48.300Z,6.20
2023-01-12T17:39:15.222Z,6.60
2023-01-12T17:42:00.894Z,9.60
2023-01-12T17:44:27.877Z,8.30
2023-01-12T17:46:54.705Z,10.90
2023-01-12T17:49:21.681Z,9.70
2023-01-12T17:51:48.681Z,6.00
2023-01-12T17:54:15.773Z,7.00
2023-01-12T17:56:42.814Z,7.80
2023-01-12T17:59:11.683Z,7.90
2023-01-12T18:01:39.988Z,9.00
2023-01-12T18:04:07.490Z,7.70
2023-01-12T18:06:34.714Z,7.60
2023-01-12T18:09:01.592Z,8.00
2023-01-12T18:11:28.954Z,7.70
2023-01-12T18:13:55.941Z,6.00
2023-01-12T18:16:23.158Z,6.10
2023-01-12T18:18:50.592Z,4.90
2023-01-12T18:21:18.640Z,7.40
2023-01-12T18:23:45.667Z,7.30
2023-01-12T18:26:13.467Z,5.50
2023-01-12T18:28:40.391Z,5.90
2023-01-12T18:31:17.421Z,5.20
2023-01-12T18:33:44.793Z,6.30
2023-01-12T18:36:12.657Z,5.30
2023-01-12T18:38:42.466Z,5.90
2023-01-12T18:41:27.988Z,6.20
2023-01-12T18:43:55.039Z,6.70
2023-01-12T18:46:42.007Z,6.30
2023-01-12T18:49:09.083Z,4.70
2023-01-12T18:51:54.564Z,7.40
2023-01-12T18:54:21.485Z,6.10
2023-01-12T18:56:49.897Z,6.80
2023-01-12T18:59:16.864Z,6.90
2023-01-12T19:01:43.908Z,5.00
2023-01-12T19:04:14.641Z,5.50
2023-01-12T19:06:47.331Z,6.80
2023-01-12T19:09:32.951Z,6.70
2023-01-12T19:11:59.875Z,5.90
2023-01-12T19:14:45.565Z,6.30
2023-01-12T19:17:27.834Z,6.30
2023-01-12T19:19:54.852Z,7.00
2023-01-12T19:22:40.690Z,5.10
2023-01-12T19:25:26.483Z,5.90
2023-01-12T19:28:12.131Z,4.70
2023-01-12T19:30:39.101Z,6.40
2023-01-12T19:33:15.197Z,3.00
2023-01-12T19:35:42.449Z,4.40
2023-01-12T19:38:09.355Z,4.70
2023-01-12T19:40:53.806Z,4.30
2023-01-12T19:43:23.798Z,3.50
2023-01-12T19:45:54.480Z,3.90
2023-01-12T19:48:21.879Z,6.50
2023-01-12T19:50:48.790Z,6.40
2023-01-12T19:53:16.525Z,6.40
2023-01-12T19:55:43.590Z,5.60
2023-01-12T19:58:10.593Z,6.20
2023-01-12T20:00:39.194Z,6.50
2023-01-12T20:03:06.142Z,5.70
2023-01-12T20:05:33.077Z,6.50
2023-01-12T20:08:00.127Z,5.20
2023-01-12T20:10:27.096Z,5.60
2023-01-12T20:12:54.825Z,3.70
2023-01-12T20:15:21.896Z,6.40
2023-01-12T20:17:49.117Z,6.20
2023-01-12T20:20:16.176Z,8.30
2023-01-12T20:22:43.182Z,9.10
2023-01-12T20:25:10.179Z,6.30
2023-01-12T20:27:37.351Z,7.30
2023-01-12T20:30:05.070Z,8.60
2023-01-12T20:32:32.568Z,6.90
2023-01-12T20:35:02.262Z,9.20
2023-01-12T20:37:29.197Z,7.00
2023-01-12T20:39:56.538Z,7.00
2023-01-12T20:42:23.443Z,6.00
2023-01-12T20:44:50.398Z,6.60
2023-01-12T20:47:19.246Z,7.30
2023-01-12T20:49:46.534Z,7.10
2023-01-12T20:52:13.465Z,6.70
2023-01-12T20:54:40.549Z,8.20
2023-01-12T20:57:07.520Z,6.40
2023-01-12T20:59:34.427Z,5.80
2023-01-12T21:02:01.486Z,5.90
2023-01-12T21:04:28.465Z,7.60
2023-01-12T21:06:55.377Z,5.80
2023-01-12T21:09:22.265Z,5.90
2023-01-12T21:11:50.292Z,7.10
2023-01-12T21:14:17.484Z,5.90
2023-01-12T21:16:46.127Z,5.70
2023-01-12T21:19:13.188Z,4.80
2023-01-12T21:21:40.137Z,4.70
2023-01-12T21:24:07.142Z,5.80
2023-01-12T21:26:34.071Z,6.30
2023-01-12T21:29:01.765Z,4.40
2023-01-12T21:31:28.819Z,5.50
2023-01-12T21:33:55.738Z,4.10
2023-01-12T21:36:23.550Z,5.20
2023-01-12T21:38:51.317Z,6.60
2023-01-12T21:41:18.315Z,6.30
2023-01-12T21:43:47.959Z,6.20
2023-01-12T21:46:14.861Z,5.30
2023-01-12T21:48:41.752Z,5.40
2023-01-12T21:51:08.950Z,5.40
2023-01-12T21:53:35.952Z,5.50
2023-01-12T21:56:03.139Z,4.00
2023-01-12T21:58:30.534Z,4.20
2023-01-12T22:00:57.653Z,5.30
2023-01-12T22:03:24.911Z,4.70
2023-01-12T22:05:51.818Z,4.90
2023-01-12T22:08:18.710Z,4.90
2023-01-12T22:10:45.609Z,4.20
2023-01-12T22:13:15.711Z,5.80
2023-01-12T22:15:42.633Z,5.80
2023-01-12T22:18:09.529Z,5.00
2023-01-12T22:20:36.513Z,6.80
2023-01-12T22:23:03.485Z,6.70
2023-01-12T22:25:30.418Z,6.00
2023-01-12T22:27:57.613Z,4.50
2023-01-12T22:30:24.705Z,3.10
2023-01-12T22:32:55.659Z,5.30
2023-01-12T22:35:22.836Z,4.80
2023-01-12T22:37:49.778Z,5.20
2023-01-12T22:40:16.815Z,6.00
2023-01-12T22:43:02.417Z,5.20
2023-01-12T22:45:29.358Z,5.10
2023-01-12T22:47:56.349Z,4.00
2023-01-12T22:50:23.434Z,4.70
2023-01-12T22:52:52.445Z,5.60
2023-01-12T22:55:19.882Z,5.50
2023-01-12T22:57:46.800Z,5.50
2023-01-12T23:00:14.130Z,5.50
2023-01-12T23:02:59.855Z,4.30
2023-01-12T23:05:35.686Z,5.50
2023-01-12T23:08:03.944Z,5.40
2023-01-12T23:10:30.887Z,4.20
2023-01-12T23:13:17.907Z,4.40
2023-01-12T23:15:56.590Z,5.00
2023-01-12T23:18:27.504Z,5.20
2023-01-12T23:20:54.483Z,3.90
2023-01-12T23:23:21.281Z,4.50
2023-01-12T23:25:48.241Z,3.30
2023-01-12T23:28:15.322Z,4.80
2023-01-12T23:30:42.302Z,3.90
2023-01-12T23:33:09.385Z,4.90
2023-01-12T23:35:37.092Z,5.80
2023-01-12T23:38:04.059Z,4.90
2023-01-12T23:40:30.968Z,4.70
2023-01-12T23:42:57.791Z,6.70
2023-01-12T23:45:24.608Z,6.50
2023-01-12T23:47:51.715Z,6.20
2023-01-12T23:50:18.605Z,6.40
2023-01-12T23:52:47.206Z,6.80
2023-01-12T23:55:14.031Z,5.70
2023-01-12T23:57:40.920Z,4.90
